Pagina principală
METAR-TAF:

METAR-TAF

Aeroporturi :

Piura, Peru

Latitudine: 05-11S, longitudine: 080-36W, elevație: 49 m

Observații meteo curente

Raportul a fost făcut în urmă cu 41 de minute, la 15:00 UTC
Vânt 3 kt din direcții variabile
Temperatură 30°C
Umiditate 62%
Presiune 1012 hPa
Vizibilitate de 10 km sau mai mult
nu există nori sub 1.500 m și nici cumulonimbus

METAR: SPUR 241500Z VRB03KT CAVOK 30/22 Q1012 RMK BIRD HAZARD RWY 19/01 PP000

Ora: 10:41 (15:41 UTC)

Prognoză

Raportul a fost făcut în urmă cu 4 ore și 31 de minute, la 11:10 UTC
Prognoză valabilă de la 24 ora 12 UTC la 25 ora 12 UTC
Vânt 5 kt de la Sud/Sud-est
Vizibilitate de 10 km sau mai mult
nu există nori sub 1.500 m și nici cumulonimbus
Devenind
de la 24 ora 18 UTC la 24 ora 20 UTC
Vânt 12 kt de la Sud/Sud-vest

TAF: SPUR 241110Z 2412/2512 16005KT CAVOK TX35/2419Z TN23/2511Z BECMG 2418/2420 21012KT

Observații și prognoze meteo pentru peste 4.000 de aeroporturi (rapoarte METAR și TAF).

Stațiile disponibile sunt reprezentate pe hartă prin puncte galbene și roșii.

Țineți indicatorul mouse-ului pe punctul dorit pentru a vedea denumirea stației.

Apoi, faceți clic pentru a vedea observațiile și prognozele meteorologice.

Pentru a schimba harta: Pentru mărire, faceți clic pe butoanele verzi cu cruce neagră; pentru micșorare, pe butonul verde cu o liniuță; pentru hărți învecinate, pe săgețile verzi.


METAR-TAF: